AWG29D LROP-ESSA
Flight info
| Callsign | AWG29D |
|---|---|
| Flight time | N/A |
| Altitude | 36000 |
| Route | BUKEL DCT EDETA DCT ANAVU DCT KENIN/N0447F370 DCT ETUBO DCT VABER/N0445F380 DCT TUNGA DCT KAZLA DCT LITPA DCT NEKET DCT TOMBU N616 XILAN |
| Aircraft | A320/M-SDE3FGHIRWY/LB1 |
Departure
| Time | 2026-05-06 06:04 |
|---|---|
| Airport | Bucharest Henri Coandă International Airport (LROP) |
Arrival
| Time | N/A |
|---|---|
| Airport | Stockholm-Arlanda Airport (ESSA) |
| Time | Latitude | Longitude | Altitude | Speed | Heading |
|---|---|---|---|---|---|
| 2026-05-06 05:46 | 44.57130 | 26.08006 | 323 ft | 0 kts | 174° |
| 2026-05-06 05:56 | 44.57138 | 26.08005 | 321 ft | 2 kts | 172° |
| 2026-05-06 05:57 | 44.57155 | 26.08002 | 320 ft | 2 kts | 171° |
| 2026-05-06 05:57 | 44.57171 | 26.07998 | 321 ft | 2 kts | 166° |
| 2026-05-06 05:57 | 44.57187 | 26.07992 | 322 ft | 2 kts | 143° |
| 2026-05-06 05:57 | 44.57195 | 26.07974 | 319 ft | 1 kts | 85° |
| 2026-05-06 05:58 | 44.57195 | 26.07968 | 322 ft | 0 kts | 83° |
| 2026-05-06 05:59 | 44.57198 | 26.08011 | 322 ft | 6 kts | 84° |
| 2026-05-06 06:00 | 44.57201 | 26.08058 | 322 ft | 4 kts | 84° |
| 2026-05-06 06:00 | 44.57203 | 26.08091 | 322 ft | 3 kts | 84° |
| 2026-05-06 06:00 | 44.57205 | 26.08122 | 322 ft | 7 kts | 84° |
| 2026-05-06 06:00 | 44.57215 | 26.08245 | 322 ft | 18 kts | 84° |
| 2026-05-06 06:01 | 44.57134 | 26.08371 | 322 ft | 25 kts | 176° |
| 2026-05-06 06:01 | 44.56953 | 26.08398 | 323 ft | 22 kts | 174° |
| 2026-05-06 06:01 | 44.56841 | 26.08296 | 322 ft | 22 kts | 243° |
| 2026-05-06 06:01 | 44.56774 | 26.08101 | 321 ft | 23 kts | 251° |
| 2026-05-06 06:02 | 44.56731 | 26.07881 | 320 ft | 24 kts | 254° |
| 2026-05-06 06:02 | 44.56679 | 26.07680 | 323 ft | 11 kts | 214° |
| 2026-05-06 06:02 | 44.56612 | 26.07668 | 321 ft | 9 kts | 172° |
| 2026-05-06 06:02 | 44.56553 | 26.07679 | 322 ft | 8 kts | 173° |
| 2026-05-06 06:03 | 44.56504 | 26.07685 | 322 ft | 6 kts | 170° |
| 2026-05-06 06:03 | 44.56474 | 26.07708 | 323 ft | 4 kts | 130° |
| 2026-05-06 06:03 | 44.56470 | 26.07733 | 323 ft | 2 kts | 88° |
| 2026-05-06 06:03 | 44.56471 | 26.07742 | 323 ft | 2 kts | 85° |
| 2026-05-06 06:04 | 44.56490 | 26.08016 | 323 ft | 65 kts | 85° |
| 2026-05-06 06:04 | 44.56556 | 26.08959 | 323 ft | 125 kts | 97° |
| 2026-05-06 06:04 | 44.56630 | 26.10328 | 667 ft | 145 kts | 78° |
| 2026-05-06 06:04 | 44.56780 | 26.11819 | 1362 ft | 165 kts | 84° |
| 2026-05-06 06:05 | 44.56907 | 26.13467 | 2105 ft | 179 kts | 85° |
| 2026-05-06 06:05 | 44.57046 | 26.15335 | 2690 ft | 206 kts | 84° |
| 2026-05-06 06:05 | 44.57204 | 26.17419 | 3191 ft | 225 kts | 84° |
| 2026-05-06 06:05 | 44.57374 | 26.19708 | 3583 ft | 249 kts | 84° |
| 2026-05-06 06:06 | 44.57708 | 26.22188 | 4095 ft | 268 kts | 66° |
| 2026-05-06 06:06 | 44.58787 | 26.24321 | 4902 ft | 272 kts | 38° |
| 2026-05-06 06:06 | 44.60453 | 26.25499 | 5833 ft | 271 kts | 10° |
| 2026-05-06 06:06 | 44.62324 | 26.25427 | 6766 ft | 271 kts | 343° |
| 2026-05-06 06:07 | 44.63966 | 26.24131 | 7672 ft | 274 kts | 321° |
| 2026-05-06 06:07 | 44.65056 | 26.22850 | 8358 ft | 276 kts | 321° |
| 2026-05-06 06:07 | 44.66514 | 26.21129 | 9246 ft | 278 kts | 321° |
| 2026-05-06 06:07 | 44.68016 | 26.19366 | 10124 ft | 281 kts | 322° |
| 2026-05-06 06:08 | 44.69561 | 26.17558 | 10569 ft | 300 kts | 322° |
| 2026-05-06 06:08 | 44.71229 | 26.15612 | 10831 ft | 323 kts | 322° |
| 2026-05-06 06:08 | 44.73020 | 26.13524 | 11044 ft | 345 kts | 322° |
| 2026-05-06 06:08 | 44.74877 | 26.11355 | 11544 ft | 355 kts | 322° |
| 2026-05-06 06:09 | 44.76816 | 26.09090 | 12227 ft | 360 kts | 322° |
| 2026-05-06 06:09 | 44.78736 | 26.06847 | 12922 ft | 365 kts | 322° |
| 2026-05-06 06:09 | 44.80702 | 26.04548 | 13610 ft | 370 kts | 322° |
| 2026-05-06 06:09 | 44.82690 | 26.02215 | 14241 ft | 374 kts | 322° |
| 2026-05-06 06:10 | 44.84701 | 25.99850 | 14876 ft | 377 kts | 322° |
| 2026-05-06 06:10 | 44.86730 | 25.97467 | 15513 ft | 380 kts | 322° |
| 2026-05-06 06:10 | 44.88773 | 25.95067 | 16136 ft | 383 kts | 322° |
| 2026-05-06 06:10 | 44.90830 | 25.92647 | 16757 ft | 386 kts | 322° |
| 2026-05-06 06:11 | 44.92898 | 25.90210 | 17347 ft | 389 kts | 322° |
| 2026-05-06 06:11 | 44.94955 | 25.87784 | 17928 ft | 392 kts | 322° |
| 2026-05-06 06:11 | 44.96640 | 25.85794 | 18383 ft | 394 kts | 322° |
| 2026-05-06 06:11 | 44.97353 | 25.84950 | 18567 ft | 395 kts | 322° |